Time;durP1;ratioP1;P1;durP2;ratioP2;P2;SDS_P1;SDS_P2;PMS_P1;PMS_P2;Temp;Humidity;BMP_temperature;BMP_pressure;BME280_temperature;BME280_humidity;BME280_pressure;Samples;Min_cycle;Max_cycle;Signal;HPM_P1;HPM_P2
2021/11/19 00:00:59;;;;;;;35.53;25.57;;;;;;;8.92;100.00;101273.28;5050906;28;20225;-80
2021/11/19 00:03:27;;;;;;;35.53;26.10;;;;;;;8.91;100.00;101265.44;5051532;28;20205;-78
2021/11/19 00:05:53;;;;;;;31.43;24.30;;;;;;;8.97;100.00;101267.19;5051843;28;20725;-79
2021/11/19 00:08:25;;;;;;;38.17;25.47;;;;;;;8.96;100.00;101281.97;5051568;28;20813;-79
2021/11/19 00:10:52;;;;;;;36.07;25.17;;;;;;;8.99;100.00;101271.53;5051550;28;20225;-78
2021/11/19 00:13:18;;;;;;;32.27;24.70;;;;;;;9.03;100.00;101286.28;5050877;28;20221;-79
2021/11/19 00:15:45;;;;;;;30.73;25.00;;;;;;;8.93;100.00;101284.56;5051163;28;20207;-79
2021/11/19 00:18:13;;;;;;;31.90;25.03;;;;;;;8.97;100.00;101288.03;5051464;28;20247;-79
2021/11/19 00:20:39;;;;;;;32.03;25.27;;;;;;;8.92;100.00;101293.25;5048590;28;20206;-78
2021/11/19 00:23:07;;;;;;;39.17;25.40;;;;;;;8.95;100.00;101288.88;5051527;28;20205;-80
2021/11/19 00:25:35;;;;;;;27.53;24.60;;;;;;;8.98;100.00;101277.63;5050863;28;20209;-79
2021/11/19 00:28:03;;;;;;;36.77;25.50;;;;;;;8.94;100.00;101281.94;5051953;28;20248;-79
2021/11/19 00:33:06;;;;;;;36.07;24.43;;;;;;;8.95;100.00;101281.06;5657100;22;20250;-78
2021/11/19 00:35:35;;;;;;;30.30;25.70;;;;;;;8.99;100.00;101271.53;5083494;28;20740;-79
2021/11/19 00:38:03;;;;;;;38.30;25.07;;;;;;;9.01;100.00;101281.97;5083466;28;20251;-79
2021/11/19 00:40:34;;;;;;;29.17;25.93;;;;;;;9.01;100.00;101281.97;5085933;28;20257;-79
2021/11/19 00:43:00;;;;;;;28.30;25.17;;;;;;;9.03;100.00;101281.09;5096150;28;20221;-80
2021/11/19 00:45:27;;;;;;;32.83;26.00;;;;;;;9.02;100.00;101279.38;5082933;28;20208;-78
2021/11/19 00:47:55;;;;;;;37.23;25.27;;;;;;;9.05;100.00;101284.56;5075530;28;20220;-79
2021/11/19 00:50:25;;;;;;;25.70;22.97;;;;;;;9.12;100.00;101290.66;5085909;28;20204;-80
2021/11/19 00:52:53;;;;;;;25.03;22.70;;;;;;;9.11;100.00;101300.19;5094694;28;20221;-79
2021/11/19 00:55:19;;;;;;;33.50;23.73;;;;;;;9.15;100.00;101304.53;5090577;28;20254;-79
2021/11/19 00:57:46;;;;;;;25.70;23.03;;;;;;;9.15;100.00;101306.28;5087222;28;20207;-79
2021/11/19 01:00:16;;;;;;;25.23;22.63;;;;;;;9.16;100.00;101313.22;5086331;28;20266;-78
2021/11/19 01:02:42;;;;;;;25.13;22.13;;;;;;;9.22;100.00;101322.78;5076721;28;20301;-78
2021/11/19 01:05:10;;;;;;;23.57;21.30;;;;;;;9.18;100.00;101323.63;5084285;28;20205;-78
2021/11/19 01:07:37;;;;;;;27.20;23.27;;;;;;;9.14;100.00;101313.22;5093710;28;20195;-79
2021/11/19 01:10:09;;;;;;;24.77;22.40;;;;;;;9.20;100.00;101332.34;5088425;28;20199;-79
2021/11/19 01:12:36;;;;;;;22.57;20.43;;;;;;;9.24;100.00;101332.34;5096368;28;20231;-79
2021/11/19 01:15:09;;;;;;;22.73;20.53;;;;;;;9.27;100.00;101334.06;5077064;28;20278;-79
2021/11/19 01:17:41;;;;;;;21.60;19.70;;;;;;;9.14;100.00;101348.84;5085021;28;20204;-79
2021/11/19 01:20:12;;;;;;;21.90;19.77;;;;;;;9.14;100.00;101339.28;5069263;28;20200;-79
2021/11/19 01:22:41;;;;;;;23.17;20.87;;;;;;;9.21;100.00;101347.09;5084211;28;20216;-78
2021/11/19 01:25:12;;;;;;;21.20;19.37;;;;;;;9.18;100.00;101347.06;5084877;28;20254;-79
2021/11/19 01:27:39;;;;;;;21.97;19.80;;;;;;;9.17;100.00;101348.81;5077491;28;20207;-79
2021/11/19 01:30:07;;;;;;;23.63;21.33;;;;;;;9.14;100.00;101360.13;5086773;28;20220;-77
2021/11/19 01:32:33;;;;;;;22.80;20.83;;;;;;;9.16;100.00;101357.50;5084619;28;20220;-78
2021/11/19 01:34:59;;;;;;;23.17;20.90;;;;;;;9.22;100.00;101354.06;5076566;28;20220;-78
2021/11/19 01:37:27;;;;;;;22.53;20.37;;;;;;;9.17;100.00;101360.97;5077178;28;20197;-79
2021/11/19 01:39:53;;;;;;;21.63;19.90;;;;;;;9.12;100.00;101369.66;5076448;28;20200;-76
2021/11/19 01:42:25;;;;;;;22.27;20.07;;;;;;;9.13;100.00;101355.75;5079907;28;20223;-79
2021/11/19 01:44:59;;;;;;;20.87;18.97;;;;;;;9.13;100.00;101358.34;5094623;28;20203;-78
2021/11/19 01:47:27;;;;;;;23.50;21.03;;;;;;;9.08;100.00;101346.22;5069002;28;20222;-78
2021/11/19 01:49:54;;;;;;;23.87;21.23;;;;;;;9.10;100.00;101347.94;5083888;28;20224;-79
2021/11/19 01:52:26;;;;;;;23.90;21.40;;;;;;;9.08;100.00;101344.47;5084203;28;20220;-79
2021/11/19 01:54:59;;;;;;;23.20;20.73;;;;;;;9.11;100.00;101331.44;5083606;28;20609;-79
2021/11/19 01:57:32;;;;;;;21.83;19.70;;;;;;;9.14;100.00;101333.19;5086696;28;20203;-76
2021/11/19 02:00:01;;;;;;;22.30;20.07;;;;;;;9.15;100.00;101332.31;5087371;28;20223;-79
2021/11/19 02:02:31;;;;;;;23.27;20.90;;;;;;;9.14;100.00;101341.03;5082306;28;20215;-78
2021/11/19 02:05:02;;;;;;;23.20;20.83;;;;;;;9.12;100.00;101347.97;5076443;28;20227;-79
2021/11/19 02:07:31;;;;;;;21.63;19.53;;;;;;;9.21;100.00;101342.75;5086587;28;20196;-79
2021/11/19 02:10:04;;;;;;;27.30;22.10;;;;;;;9.20;100.00;101340.16;5079152;28;20226;-78
2021/11/19 02:12:39;;;;;;;25.90;22.50;;;;;;;9.22;100.00;101339.28;5082888;28;20288;-78
2021/11/19 02:15:11;;;;;;;27.30;22.47;;;;;;;9.15;100.00;101343.59;5086517;28;20203;-79
2021/11/19 02:17:39;;;;;;;28.63;22.67;;;;;;;9.15;100.00;101334.94;5075634;28;20588;-79
2021/11/19 02:20:11;;;;;;;27.77;23.63;;;;;;;9.20;100.00;101330.59;5090506;28;20244;-78
2021/11/19 02:22:41;;;;;;;29.00;22.43;;;;;;;9.22;100.00;101317.59;5075330;28;20296;-79
2021/11/19 02:25:16;;;;;;;26.43;23.60;;;;;;;9.20;100.00;101324.53;5091485;28;20207;-79
2021/11/19 02:27:47;;;;;;;28.17;24.87;;;;;;;9.14;100.00;101315.84;5067373;28;20199;-78
2021/11/19 02:30:17;;;;;;;27.00;24.00;;;;;;;9.21;100.00;101310.63;5075574;28;20281;-78
2021/11/19 02:32:46;;;;;;;24.27;21.80;;;;;;;9.16;100.00;101310.63;5078869;28;20226;-79
2021/11/19 02:35:17;;;;;;;23.97;21.40;;;;;;;9.17;100.00;101299.31;5078023;28;20266;-79
2021/11/19 02:37:47;;;;;;;23.63;20.87;;;;;;;9.17;100.00;101301.94;5078181;28;20246;-79
2021/11/19 02:40:16;;;;;;;22.60;20.17;;;;;;;9.20;100.00;101308.91;5079484;28;20205;-79
2021/11/19 02:42:47;;;;;;;21.97;19.93;;;;;;;9.22;100.00;101314.97;5090652;28;20213;-78
2021/11/19 02:45:17;;;;;;;20.37;18.67;;;;;;;9.21;100.00;101314.09;5091343;28;20203;-79
2021/11/19 02:47:44;;;;;;;20.93;19.03;;;;;;;9.14;100.00;101317.56;5086351;28;20673;-78
2021/11/19 02:50:12;;;;;;;23.70;18.67;;;;;;;9.16;100.00;101308.03;5087972;28;20277;-78
2021/11/19 02:52:41;;;;;;;21.87;18.73;;;;;;;9.07;100.00;101297.59;5093273;28;20219;-78
2021/11/19 02:55:12;;;;;;;20.23;18.37;;;;;;;9.09;100.00;101291.50;5079855;28;20227;-79
2021/11/19 02:57:39;;;;;;;20.33;18.27;;;;;;;9.07;100.00;101282.81;5085135;28;20255;-78
2021/11/19 03:00:11;;;;;;;19.97;18.10;;;;;;;9.12;100.00;101278.50;5080688;28;20665;-78
2021/11/19 03:02:38;;;;;;;19.47;17.43;;;;;;;9.07;100.00;101285.44;5074612;28;20258;-78
2021/11/19 03:05:09;;;;;;;17.70;15.60;;;;;;;9.10;100.00;101280.22;5080689;28;20257;-79
2021/11/19 03:07:35;;;;;;;17.23;15.53;;;;;;;9.11;100.00;101278.50;5092103;28;20218;-79
2021/11/19 03:10:10;;;;;;;17.97;16.27;;;;;;;9.13;100.00;101282.81;5093476;28;20277;-78
2021/11/19 03:12:37;;;;;;;17.97;16.47;;;;;;;9.13;100.00;101279.34;5087461;28;20222;-79
2021/11/19 03:15:11;;;;;;;17.80;16.27;;;;;;;9.19;100.00;101276.75;5081083;28;20198;-79
2021/11/19 03:17:38;;;;;;;16.40;15.00;;;;;;;9.23;100.00;101283.69;5077436;28;20205;-78
2021/11/19 03:20:06;;;;;;;17.67;16.17;;;;;;;9.25;100.00;101278.50;5086498;28;20195;-79
2021/11/19 03:22:33;;;;;;;17.80;16.10;;;;;;;9.30;100.00;101292.41;5084737;28;20268;-78
2021/11/19 03:24:59;;;;;;;17.17;15.50;;;;;;;9.28;100.00;101289.78;5081894;28;20253;-78
2021/11/19 03:27:28;;;;;;;17.60;16.00;;;;;;;9.28;100.00;101297.59;5089034;28;20211;-78
2021/11/19 03:29:56;;;;;;;18.03;16.43;;;;;;;9.26;100.00;101296.75;5069385;28;20234;-78
2021/11/19 03:32:27;;;;;;;18.13;16.40;;;;;;;9.31;100.00;101296.72;5082853;28;20282;-79
2021/11/19 03:34:54;;;;;;;17.80;16.17;;;;;;;9.34;100.00;101299.34;5079104;28;20266;-78
2021/11/19 03:37:21;;;;;;;18.97;17.17;;;;;;;9.34;100.00;101305.41;5074122;28;20226;-78
2021/11/19 03:39:49;;;;;;;19.87;18.03;;;;;;;9.29;100.00;101304.53;5074062;28;20196;-78
2021/11/19 03:42:18;;;;;;;20.60;18.80;;;;;;;9.31;100.00;101292.38;5087030;28;20581;-78
2021/11/19 03:44:48;;;;;;;22.33;20.20;;;;;;;9.36;100.00;101300.22;5092726;28;20208;-79
2021/11/19 03:47:18;;;;;;;21.83;19.83;;;;;;;9.38;100.00;101310.66;5081689;28;20268;-79
2021/11/19 03:49:48;;;;;;;20.27;18.57;;;;;;;9.41;100.00;101306.28;5083257;28;20740;-79
2021/11/19 03:52:19;;;;;;;19.03;17.37;;;;;;;9.45;100.00;101309.75;5092845;28;20272;-79
2021/11/19 03:54:48;;;;;;;20.63;18.73;;;;;;;9.46;100.00;101314.13;5093474;28;20604;-79
2021/11/19 03:57:17;;;;;;;19.43;17.53;;;;;;;9.43;100.00;101327.13;5087967;28;20278;-79
2021/11/19 03:59:44;;;;;;;18.87;17.17;;;;;;;9.47;100.00;101332.34;5081829;28;20211;-78
2021/11/19 04:02:12;;;;;;;18.87;17.13;;;;;;;9.49;100.00;101329.72;5077173;28;20624;-78
2021/11/19 04:04:40;;;;;;;20.83;18.77;;;;;;;9.47;100.00;101332.34;5081907;28;20242;-78
2021/11/19 04:07:10;;;;;;;20.23;18.43;;;;;;;9.47;100.00;101329.72;5070431;28;20210;-79
2021/11/19 04:09:38;;;;;;;18.33;16.93;;;;;;;9.50;100.00;101328.88;5090288;28;20215;-78
2021/11/19 04:12:06;;;;;;;17.53;15.97;;;;;;;9.51;100.00;101331.50;5088066;28;20249;-78
2021/11/19 04:14:33;;;;;;;19.83;18.07;;;;;;;9.56;100.00;101339.28;5088283;28;20192;-78
2021/11/19 04:17:01;;;;;;;20.07;18.37;;;;;;;9.53;100.00;101336.69;5088487;28;20212;-79
2021/11/19 04:19:30;;;;;;;19.27;17.57;;;;;;;9.59;100.00;101344.50;5089024;28;20192;-78
2021/11/19 04:21:59;;;;;;;20.27;18.27;;;;;;;9.59;100.00;101347.09;5087042;28;20242;-78
2021/11/19 04:24:33;;;;;;;19.43;17.73;;;;;;;9.58;100.00;101354.94;5078266;28;20218;-79
2021/11/19 04:27:00;;;;;;;19.07;17.47;;;;;;;9.54;100.00;101347.13;5085332;28;20251;-79
2021/11/19 04:29:26;;;;;;;19.00;16.90;;;;;;;9.54;100.00;101344.50;5082586;28;20764;-79
2021/11/19 04:31:53;;;;;;;17.87;16.33;;;;;;;9.52;100.00;101334.97;5090563;28;20205;-78
2021/11/19 04:34:19;;;;;;;17.80;16.30;;;;;;;9.56;100.00;101344.50;5082119;28;20204;-77
2021/11/19 04:36:46;;;;;;;18.93;17.33;;;;;;;9.56;100.00;101341.91;5085804;28;20204;-78
2021/11/19 04:39:13;;;;;;;16.13;14.83;;;;;;;9.51;100.00;101347.13;5080367;28;20222;-79
2021/11/19 04:41:42;;;;;;;16.83;15.43;;;;;;;9.58;100.00;101341.91;5088396;28;20254;-76
2021/11/19 04:44:09;;;;;;;17.83;16.23;;;;;;;9.58;100.00;101350.59;5094661;28;20223;-78
2021/11/19 04:46:36;;;;;;;18.63;16.90;;;;;;;9.54;100.00;101341.91;5077383;28;20205;-78
2021/11/19 04:49:03;;;;;;;17.80;16.30;;;;;;;9.48;100.00;101330.63;5086591;28;20210;-80
2021/11/19 04:51:37;;;;;;;17.53;16.03;;;;;;;9.44;100.00;101327.13;5095286;28;20200;-78
2021/11/19 04:54:05;;;;;;;18.40;16.70;;;;;;;9.46;100.00;101327.16;5092789;28;20220;-78
2021/11/19 04:56:32;;;;;;;19.03;17.13;;;;;;;9.40;100.00;101319.34;5113748;28;20245;-77
2021/11/19 04:59:00;;;;;;;18.20;16.60;;;;;;;9.38;100.00;101311.50;5105495;28;20606;-78
2021/11/19 05:01:29;;;;;;;20.13;18.17;;;;;;;9.35;100.00;101298.47;5096109;28;20203;-78
2021/11/19 05:03:56;;;;;;;21.43;19.43;;;;;;;9.36;100.00;101289.78;5086633;28;20250;-76
2021/11/19 05:06:22;;;;;;;20.13;18.30;;;;;;;9.39;100.00;101286.31;5104856;28;20196;-78
2021/11/19 05:08:49;;;;;;;20.63;18.73;;;;;;;9.38;100.00;101288.06;5111801;28;20193;-78
2021/11/19 05:11:18;;;;;;;22.63;20.60;;;;;;;9.37;100.00;101295.88;5104621;28;20207;-77
2021/11/19 05:13:45;;;;;;;23.53;21.03;;;;;;;9.38;100.00;101281.97;5110377;28;20223;-78
2021/11/19 05:16:14;;;;;;;29.63;22.07;;;;;;;9.32;100.00;101282.84;5102683;28;20234;-78
2021/11/19 05:18:43;;;;;;;30.03;22.13;;;;;;;9.26;100.00;101275.03;5098372;28;20226;-78
2021/11/19 05:21:11;;;;;;;24.77;20.83;;;;;;;9.26;100.00;101275.91;5093823;28;20222;-78
2021/11/19 05:23:37;;;;;;;29.20;22.17;;;;;;;9.25;100.00;101260.25;5107090;28;20218;-77
2021/11/19 05:26:04;;;;;;;26.47;23.70;;;;;;;9.23;100.00;101259.38;5101911;28;20209;-76
2021/11/19 05:28:31;;;;;;;31.10;23.00;;;;;;;9.24;100.00;101256.78;5108250;28;20720;-78
2021/11/19 05:30:58;;;;;;;29.20;22.87;;;;;;;9.24;100.00;101262.00;5099967;28;20219;-78
2021/11/19 05:33:28;;;;;;;33.87;24.13;;;;;;;9.26;100.00;101264.63;5093420;28;20224;-78
2021/11/19 05:35:55;;;;;;;24.70;22.03;;;;;;;9.31;100.00;101262.84;5100952;28;20478;-78
2021/11/19 05:38:24;;;;;;;30.70;23.67;;;;;;;9.31;100.00;101275.88;5096884;28;20192;-78
2021/11/19 05:40:51;;;;;;;31.50;24.07;;;;;;;9.31;100.00;101273.28;5106167;28;20199;-77
2021/11/19 05:43:17;;;;;;;26.67;22.67;;;;;;;9.36;100.00;101275.91;5103236;28;20223;-78
2021/11/19 05:45:44;;;;;;;28.47;22.37;;;;;;;9.39;100.00;101281.09;5107547;28;20233;-77
2021/11/19 05:48:10;;;;;;;28.50;22.60;;;;;;;9.40;100.00;101281.09;5098754;28;20204;-77
2021/11/19 05:50:41;;;;;;;32.70;22.97;;;;;;;9.43;100.00;101290.66;5107697;28;20240;-77
2021/11/19 05:53:09;;;;;;;26.70;21.73;;;;;;;9.43;100.00;101291.50;5113854;28;20327;-77
2021/11/19 05:55:39;;;;;;;25.90;21.97;;;;;;;9.42;100.00;101300.22;5098460;28;20204;-78
2021/11/19 05:58:07;;;;;;;28.10;22.40;;;;;;;9.42;100.00;101312.38;5106865;28;20193;-78
2021/11/19 06:00:38;;;;;;;28.77;22.70;;;;;;;9.40;100.00;101316.72;5113713;28;20203;-77
2021/11/19 06:03:04;;;;;;;29.33;22.80;;;;;;;9.45;100.00;101309.75;5114018;28;20264;-77
2021/11/19 06:05:31;;;;;;;25.67;21.90;;;;;;;9.48;100.00;101318.44;5098270;28;20183;-78
2021/11/19 06:07:58;;;;;;;30.30;23.23;;;;;;;9.45;100.00;101328.84;5106773;28;20217;-77
2021/11/19 06:10:28;;;;;;;29.73;22.83;;;;;;;9.40;100.00;101333.22;5098535;28;20203;-77
2021/11/19 06:12:59;;;;;;;31.43;24.00;;;;;;;9.41;100.00;101334.94;5106198;28;20224;-78
2021/11/19 06:15:28;;;;;;;36.10;26.00;;;;;;;9.41;100.00;101337.53;5104125;28;20208;-78
2021/11/19 06:17:59;;;;;;;32.00;25.20;;;;;;;9.40;100.00;101341.03;5098548;28;20222;-78
2021/11/19 06:20:30;;;;;;;34.97;24.63;;;;;;;9.41;100.00;101347.97;5093904;28;20283;-77
2021/11/19 06:23:02;;;;;;;37.67;23.73;;;;;;;9.45;100.00;101354.06;5096586;28;20224;-77
2021/11/19 06:25:31;;;;;;;25.00;21.23;;;;;;;9.43;100.00;101359.25;5102208;28;20187;-78
2021/11/19 06:28:00;;;;;;;26.10;21.43;;;;;;;9.47;100.00;101360.13;5092167;28;20205;-78
2021/11/19 06:30:28;;;;;;;27.83;20.83;;;;;;;9.47;100.00;101365.34;5083833;28;20254;-79
2021/11/19 06:32:54;;;;;;;28.53;21.30;;;;;;;9.47;100.00;101367.94;5086511;28;20219;-78
2021/11/19 06:35:21;;;;;;;25.77;22.27;;;;;;;9.44;100.00;101375.78;5092423;28;20255;-78
2021/11/19 06:37:48;;;;;;;32.83;22.57;;;;;;;9.46;100.00;101374.06;5079425;28;20208;-79
2021/11/19 06:40:19;;;;;;;31.33;21.33;;;;;;;9.49;100.00;101381.84;5095706;28;20199;-79
2021/11/19 06:42:46;;;;;;;24.87;21.20;;;;;;;9.50;100.00;101391.44;5083298;28;20219;-79
2021/11/19 06:45:14;;;;;;;27.23;21.07;;;;;;;9.46;100.00;101389.69;5076097;28;20204;-78
2021/11/19 06:47:41;;;;;;;26.90;20.33;;;;;;;9.47;100.00;101396.63;5082707;28;20243;-78
2021/11/19 06:50:09;;;;;;;29.43;22.37;;;;;;;9.43;100.00;101387.94;5085162;28;20253;-79
2021/11/19 06:52:35;;;;;;;27.63;21.47;;;;;;;9.43;100.00;101400.09;5076051;28;20297;-79
2021/11/19 06:55:01;;;;;;;30.07;21.47;;;;;;;9.45;100.00;101395.75;5090052;28;20747;-79
2021/11/19 06:57:29;;;;;;;29.63;21.73;;;;;;;9.46;100.00;101400.97;5083241;28;20685;-78
2021/11/19 06:59:56;;;;;;;32.03;22.37;;;;;;;9.43;100.00;101400.09;5083260;28;20215;-79
2021/11/19 07:02:22;;;;;;;29.67;20.77;;;;;;;9.44;100.00;101410.53;5085503;28;20271;-80
2021/11/19 07:04:48;;;;;;;26.27;22.40;;;;;;;9.44;100.00;101415.75;5081253;28;20253;-79
2021/11/19 07:07:15;;;;;;;31.67;22.40;;;;;;;9.42;100.00;101411.41;5089592;28;20587;-79
2021/11/19 07:09:43;;;;;;;29.23;21.53;;;;;;;9.45;100.00;101414.84;5085923;28;20712;-79
2021/11/19 07:12:11;;;;;;;26.07;21.00;;;;;;;9.47;100.00;101417.47;5093994;28;20227;-79
2021/11/19 07:14:40;;;;;;;26.93;20.20;;;;;;;9.49;100.00;101428.75;5077990;28;20200;-79
2021/11/19 07:17:07;;;;;;;27.10;20.60;;;;;;;9.46;100.00;101427.03;5075699;28;20254;-80
2021/11/19 07:19:35;;;;;;;23.27;20.67;;;;;;;9.43;100.00;101427.00;5083228;28;20201;-80
2021/11/19 07:22:02;;;;;;;22.90;20.17;;;;;;;9.44;100.00;101436.59;5078154;28;20203;-79
2021/11/19 07:24:29;;;;;;;25.30;20.03;;;;;;;9.44;100.00;101436.59;5087685;28;20197;-79
2021/11/19 07:26:55;;;;;;;20.20;17.73;;;;;;;9.45;100.00;101440.91;5085635;28;20225;-80
2021/11/19 07:29:23;;;;;;;18.93;16.83;;;;;;;9.48;100.00;101440.06;5086135;28;20201;-80
2021/11/19 07:31:50;;;;;;;19.33;17.30;;;;;;;9.47;100.00;101447.00;5080288;28;20224;-79
2021/11/19 07:34:17;;;;;;;20.63;16.60;;;;;;;9.49;100.00;101436.59;5079116;28;20700;-80
2021/11/19 07:36:44;;;;;;;17.63;16.03;;;;;;;9.48;100.00;101451.38;5091009;28;20665;-79
2021/11/19 07:39:12;;;;;;;16.33;14.90;;;;;;;9.51;100.00;101460.91;5091219;28;20199;-79
2021/11/19 07:41:38;;;;;;;16.93;15.50;;;;;;;9.53;100.00;101453.97;5084413;28;20226;-80
2021/11/19 07:44:06;;;;;;;16.07;14.67;;;;;;;9.59;100.00;101451.38;5095597;28;20242;-80
2021/11/19 07:46:33;;;;;;;17.10;14.30;;;;;;;9.63;100.00;101462.66;5087323;28;20609;-80
2021/11/19 07:49:01;;;;;;;14.77;13.47;;;;;;;9.65;100.00;101461.84;5086732;28;20202;-80
2021/11/19 07:51:32;;;;;;;16.00;14.47;;;;;;;9.66;100.00;101468.75;5084126;28;20223;-80
2021/11/19 07:53:59;;;;;;;13.33;12.23;;;;;;;9.68;100.00;101468.78;5082177;28;20227;-79
2021/11/19 07:56:30;;;;;;;13.17;12.00;;;;;;;9.71;100.00;101466.16;5087136;28;20197;-80
2021/11/19 07:58:57;;;;;;;11.50;10.50;;;;;;;9.68;100.00;101476.59;5090468;28;20279;-80
2021/11/19 08:01:24;;;;;;;11.27;10.27;;;;;;;9.68;100.00;101474.84;5088055;28;20196;-79
2021/11/19 08:03:50;;;;;;;10.17;9.37;;;;;;;9.76;100.00;101485.28;5084514;28;20270;-79
2021/11/19 08:06:18;;;;;;;10.70;9.90;;;;;;;9.83;100.00;101478.34;5079611;28;20200;-80
2021/11/19 08:08:46;;;;;;;10.53;9.73;;;;;;;9.90;100.00;101480.09;5081720;28;20203;-80
2021/11/19 08:11:14;;;;;;;10.60;9.80;;;;;;;9.73;100.00;101483.56;5094297;28;20247;-80
2021/11/19 08:13:41;;;;;;;11.43;10.53;;;;;;;9.64;100.00;101488.75;5069667;28;20213;-79
2021/11/19 08:16:08;;;;;;;10.73;9.83;;;;;;;9.65;100.00;101484.41;5092667;28;20257;-79
2021/11/19 08:18:43;;;;;;;11.57;10.63;;;;;;;9.69;100.00;101481.81;5095585;28;20196;-78
2021/11/19 08:21:09;;;;;;;13.40;12.30;;;;;;;9.75;100.00;101480.94;5075683;28;20197;-77
2021/11/19 08:23:39;;;;;;;11.67;10.67;;;;;;;9.77;100.00;101479.19;5091634;28;20655;-78
2021/11/19 08:26:09;;;;;;;10.70;9.90;;;;;;;9.80;100.00;101483.56;5078218;28;20212;-77
2021/11/19 08:28:37;;;;;;;12.63;11.63;;;;;;;9.84;100.00;101477.47;5080177;28;20284;-77
2021/11/19 08:31:07;;;;;;;10.87;9.97;;;;;;;9.83;100.00;101483.56;5074253;28;20642;-74
2021/11/19 08:33:34;;;;;;;10.90;10.10;;;;;;;9.92;100.00;101486.19;5077205;28;20220;-77
2021/11/19 08:36:00;;;;;;;10.23;9.43;;;;;;;9.96;100.00;101487.06;5082109;28;20219;-78
2021/11/19 08:38:27;;;;;;;12.43;11.63;;;;;;;10.01;100.00;101500.94;5077684;28;20200;-77
2021/11/19 08:40:56;;;;;;;12.70;11.67;;;;;;;10.10;100.00;101503.56;5090825;28;20229;-78
2021/11/19 08:43:25;;;;;;;11.30;10.40;;;;;;;10.14;100.00;101524.44;5090958;28;20229;-78
2021/11/19 08:45:53;;;;;;;11.50;10.60;;;;;;;10.05;100.00;101534.00;5076923;28;20193;-77
2021/11/19 08:48:20;;;;;;;11.13;10.13;;;;;;;10.07;100.00;101532.28;5083775;28;20203;-78
2021/11/19 08:50:47;;;;;;;12.53;11.47;;;;;;;9.98;100.00;101535.75;5079971;28;20225;-79
2021/11/19 08:53:16;;;;;;;10.83;10.03;;;;;;;10.07;100.00;101540.13;5081838;28;20220;-79
2021/11/19 08:55:45;;;;;;;13.00;12.10;;;;;;;10.03;100.00;101544.44;5075477;28;20266;-78
2021/11/19 08:58:15;;;;;;;14.87;13.77;;;;;;;10.12;100.00;101539.22;5074392;28;20212;-78
2021/11/19 09:00:43;;;;;;;15.20;13.90;;;;;;;10.10;100.00;101547.94;5075728;28;20200;-78
2021/11/19 09:03:10;;;;;;;15.77;14.03;;;;;;;10.12;100.00;101547.03;5074678;28;20221;-78
2021/11/19 09:05:39;;;;;;;14.50;13.30;;;;;;;10.07;100.00;101547.94;5075819;28;20232;-78
2021/11/19 09:08:08;;;;;;;15.73;14.43;;;;;;;10.07;100.00;101548.81;5075241;28;20209;-78
2021/11/19 09:10:35;;;;;;;16.60;15.20;;;;;;;10.09;100.00;101556.63;5076612;28;20225;-78
2021/11/19 09:13:02;;;;;;;15.70;14.50;;;;;;;10.07;100.00;101550.53;5075349;28;20715;-78
2021/11/19 09:15:30;;;;;;;16.23;14.93;;;;;;;10.09;100.00;101546.19;5076258;28;20209;-78
2021/11/19 09:18:12;;;;;;;17.97;16.53;;;;;;;10.14;100.00;101552.28;5076414;28;20272;-78
2021/11/19 09:20:54;;;;;;;16.97;15.20;;;;;;;10.17;100.00;101548.78;5076442;28;20220;-78
2021/11/19 09:23:25;;;;;;;17.80;16.30;;;;;;;10.26;100.00;101548.81;5076087;28;20278;-78
2021/11/19 09:25:53;;;;;;;17.90;16.33;;;;;;;10.26;100.00;101561.84;5076655;28;20227;-78
2021/11/19 09:28:22;;;;;;;18.77;17.00;;;;;;;10.25;100.00;101562.75;5076800;28;20209;-78
2021/11/19 09:30:55;;;;;;;17.03;15.70;;;;;;;10.31;100.00;101566.25;5077573;28;20229;-78
2021/11/19 09:33:23;;;;;;;18.10;16.60;;;;;;;10.39;100.00;101578.44;5075157;28;20272;-78
2021/11/19 09:35:51;;;;;;;17.07;15.67;;;;;;;10.36;100.00;101587.09;5076047;28;20215;-79
2021/11/19 09:38:20;;;;;;;17.80;16.40;;;;;;;10.31;100.00;101597.56;5075500;28;20205;-79
2021/11/19 09:40:49;;;;;;;16.73;15.23;;;;;;;10.34;100.00;101597.53;5075502;28;20205;-78
2021/11/19 09:43:37;;;;;;;17.03;15.63;;;;;;;10.34;100.00;101599.28;5075322;28;20228;-79
2021/11/19 09:46:46;;;;;;;16.97;15.47;;;;;;;10.33;100.00;101613.22;5075759;28;20235;-79
2021/11/19 09:49:41;;;;;;;15.97;14.67;;;;;;;10.39;100.00;101620.19;5074893;28;20258;-78
2021/11/19 09:52:55;;;;;;;16.77;15.30;;;;;;;10.34;100.00;101612.34;5074541;28;20228;-79
2021/11/19 09:55:42;;;;;;;16.50;15.10;;;;;;;10.40;100.00;101614.09;5006718;28;20337;-79
2021/11/19 09:58:36;;;;;;;16.70;15.27;;;;;;;10.44;100.00;101618.44;5075143;28;20262;-78
2021/11/19 10:01:43;;;;;;;18.63;17.00;;;;;;;10.44;100.00;101614.06;5074754;28;20678;-78
2021/11/19 10:04:29;;;;;;;17.37;15.87;;;;;;;10.48;100.00;101625.41;5026974;28;20220;-78
2021/11/19 10:07:00;;;;;;;16.93;15.43;;;;;;;10.57;100.00;101625.41;5073361;28;20204;-78
2021/11/19 10:09:36;;;;;;;16.70;15.30;;;;;;;10.58;100.00;101642.81;5073298;28;20207;-78
2021/11/19 10:12:08;;;;;;;17.50;16.10;;;;;;;10.59;100.00;101643.69;5072217;28;20721;-78
2021/11/19 10:14:44;;;;;;;17.77;16.37;;;;;;;10.71;100.00;101631.50;5073510;28;20281;-78
2021/11/19 10:17:20;;;;;;;17.40;16.10;;;;;;;10.76;100.00;101633.22;5073546;28;20253;-77
2021/11/19 10:19:49;;;;;;;17.37;15.97;;;;;;;10.80;100.00;101640.19;5073165;28;20666;-78
2021/11/19 10:22:24;;;;;;;17.37;15.90;;;;;;;10.82;100.00;101652.41;5073846;28;20224;-78
2021/11/19 10:24:54;;;;;;;18.10;16.60;;;;;;;10.83;100.00;101648.91;5073797;28;20200;-78
2021/11/19 10:27:23;;;;;;;18.40;16.80;;;;;;;10.93;100.00;101644.53;5073023;28;20814;-78
2021/11/19 10:29:53;;;;;;;16.17;14.97;;;;;;;10.90;100.00;101663.72;5074123;28;20562;-78
2021/11/19 10:32:23;;;;;;;18.40;16.90;;;;;;;10.91;100.00;101680.25;5072897;28;20231;-77
2021/11/19 10:35:03;;;;;;;19.13;17.53;;;;;;;10.99;100.00;101675.03;5072714;28;20204;-77
2021/11/19 10:38:01;;;;;;;19.17;17.47;;;;;;;10.97;100.00;101680.25;5072864;28;20256;-78
2021/11/19 10:40:47;;;;;;;19.53;16.70;;;;;;;11.09;100.00;101688.06;5073159;28;20262;-77
2021/11/19 10:43:42;;;;;;;18.07;16.50;;;;;;;11.11;99.53;101690.69;5073192;28;20228;-78
2021/11/19 10:46:24;;;;;;;18.40;17.00;;;;;;;11.17;98.89;101705.50;5072696;28;20210;-78
2021/11/19 10:49:30;;;;;;;18.73;17.07;;;;;;;11.13;98.56;101718.56;5072459;28;20207;-77
2021/11/19 10:52:42;;;;;;;18.80;17.13;;;;;;;11.15;98.99;101718.56;5069252;28;20277;-77
2021/11/19 10:55:31;;;;;;;18.60;16.80;;;;;;;11.26;98.58;101721.19;5065455;28;20216;-78
2021/11/19 10:58:34;;;;;;;17.90;16.50;;;;;;;11.17;97.92;101714.19;5072447;28;20235;-77
2021/11/19 11:01:12;;;;;;;19.20;17.73;;;;;;;11.17;97.75;101740.34;5072406;28;20795;-78
2021/11/19 11:03:42;;;;;;;19.93;18.43;;;;;;;11.07;97.67;101743.81;5064091;28;20642;-78
2021/11/19 11:06:15;;;;;;;18.97;17.17;;;;;;;11.15;98.01;101728.16;5072613;28;20201;-77
2021/11/19 11:08:45;;;;;;;19.00;17.23;;;;;;;11.12;97.44;101737.72;5072456;28;20262;-78
2021/11/19 11:11:27;;;;;;;19.33;17.73;;;;;;;11.10;97.56;101734.25;5072199;28;20224;-78
2021/11/19 11:13:59;;;;;;;17.70;16.23;;;;;;;11.15;97.27;101738.59;5072078;28;20233;-78
2021/11/19 11:16:28;;;;;;;19.00;17.47;;;;;;;11.15;97.10;101736.84;5072301;28;20200;-77
2021/11/19 11:18:58;;;;;;;20.33;18.40;;;;;;;11.19;97.84;101717.69;5071747;28;20205;-77
2021/11/19 11:21:33;;;;;;;19.27;17.70;;;;;;;11.26;97.59;101726.41;5072163;28;20625;-77
2021/11/19 11:24:19;;;;;;;20.80;19.20;;;;;;;11.21;97.59;101725.53;5071913;28;20228;-77
2021/11/19 11:26:49;;;;;;;18.97;17.47;;;;;;;11.17;97.04;101744.69;5072448;28;20205;-78